Time;durP1;ratioP1;P1;durP2;ratioP2;P2;SDS_P1;SDS_P2;PMS_P1;PMS_P2;Temp;Humidity;BMP_temperature;BMP_pressure;BME280_temperature;BME280_humidity;BME280_pressure;Samples;Min_cycle;Max_cycle;Signal;HPM_P1;HPM_P2
2021/05/27 00:01:25;;;;;;;;;;;6.50;97.70;;;;;;5083263;28;19920;-72
2021/05/27 00:03:51;;;;;;;;;;;6.50;97.50;;;;;;5079022;28;20269;-73
2021/05/27 00:06:16;;;;;;;;;;;6.50;97.50;;;;;;5062659;28;19942;-72
2021/05/27 00:08:42;;;;;;;;;;;6.40;97.70;;;;;;5078593;28;19924;-73
2021/05/27 00:11:07;;;;;;;;;;;6.50;97.80;;;;;;5078742;28;20228;-72
2021/05/27 00:13:33;;;;;;;;;;;6.50;97.60;;;;;;5084590;28;20277;-72
2021/05/27 00:15:59;;;;;;;;;;;6.50;97.80;;;;;;5089076;28;20248;-71
2021/05/27 00:18:24;;;;;;;;;;;6.50;97.60;;;;;;5090248;28;19924;-73
2021/05/27 00:20:50;;;;;;;;;;;6.50;97.50;;;;;;5060870;28;20237;-72
2021/05/27 00:23:15;;;;;;;;;;;6.50;97.40;;;;;;5078420;28;19986;-73
2021/05/27 00:25:41;;;;;;;;;;;6.50;97.50;;;;;;5080301;28;19920;-72
2021/05/27 00:28:06;;;;;;;;;;;6.50;97.60;;;;;;5080704;28;19920;-73
2021/05/27 00:30:32;;;;;;;;;;;6.50;97.70;;;;;;5085525;28;19972;-72
2021/05/27 00:32:57;;;;;;;;;;;6.50;97.60;;;;;;5081901;28;20370;-73
2021/05/27 00:35:23;;;;;;;;;;;6.50;97.60;;;;;;5062564;28;20239;-72
2021/05/27 00:37:48;;;;;;;;;;;6.40;97.50;;;;;;5076292;28;19923;-72
2021/05/27 00:40:15;;;;;;;;;;;6.50;97.40;;;;;;5082516;28;19916;-73
2021/05/27 00:42:41;;;;;;;;;;;6.50;97.50;;;;;;5079896;28;20325;-72
2021/05/27 00:45:06;;;;;;;;;;;6.40;97.70;;;;;;5081662;28;19924;-72
2021/05/27 00:47:32;;;;;;;;;;;6.40;97.80;;;;;;5080135;28;19912;-72
2021/05/27 00:49:57;;;;;;;;;;;6.40;97.60;;;;;;5084249;28;19920;-73
2021/05/27 00:52:23;;;;;;;;;;;6.40;97.40;;;;;;5083653;28;19931;-72
2021/05/27 00:54:49;;;;;;;;;;;6.40;97.40;;;;;;5078257;28;19920;-72
2021/05/27 00:57:34;;;;;;;;;;;6.50;97.50;;;;;;5056158;28;19921;-72
2021/05/27 01:00:00;;;;;;;;;;;6.40;97.60;;;;;;5040668;28;19925;-72
2021/05/27 01:02:27;;;;;;;;;;;6.50;97.50;;;;;;5039224;28;19920;-72
2021/05/27 01:04:53;;;;;;;;;;;6.50;97.40;;;;;;5042787;28;19913;-73
2021/05/27 01:07:19;;;;;;;;;;;6.50;97.40;;;;;;5038327;28;19913;-73
2021/05/27 01:09:45;;;;;;;;;;;6.40;97.20;;;;;;5041509;28;20011;-73
2021/05/27 01:12:10;;;;;;;;;;;6.40;97.30;;;;;;5039877;28;20333;-72
2021/05/27 01:17:23;;;;;;;;;;;6.40;97.20;;;;;;5041624;28;20008;-73
2021/05/27 01:19:49;;;;;;;;;;;6.40;96.90;;;;;;5044671;28;19917;-72
2021/05/27 01:22:16;;;;;;;;;;;6.40;97.10;;;;;;5042663;28;19921;-72
2021/05/27 01:24:41;;;;;;;;;;;6.30;97.10;;;;;;5040527;28;19917;-73
2021/05/27 01:27:07;;;;;;;;;;;6.30;96.90;;;;;;5050351;28;19919;-72
2021/05/27 01:29:33;;;;;;;;;;;6.30;96.90;;;;;;5053732;28;19935;-72
2021/05/27 01:31:58;;;;;;;;;;;6.30;96.80;;;;;;5050680;28;20324;-72
2021/05/27 01:34:24;;;;;;;;;;;6.30;96.90;;;;;;5041631;28;19925;-73
2021/05/27 01:36:49;;;;;;;;;;;6.20;96.90;;;;;;5042302;28;20008;-72
2021/05/27 01:39:15;;;;;;;;;;;6.20;96.80;;;;;;5042344;28;19935;-72
2021/05/27 01:41:41;;;;;;;;;;;6.20;96.80;;;;;;5036525;28;19913;-72
2021/05/27 01:44:06;;;;;;;;;;;6.20;96.90;;;;;;5044147;28;19912;-72
2021/05/27 01:46:32;;;;;;;;;;;6.20;97.00;;;;;;5043487;28;19921;-72
2021/05/27 01:48:57;;;;;;;;;;;6.30;97.00;;;;;;5039426;28;19943;-72
2021/05/27 01:51:23;;;;;;;;;;;6.30;97.10;;;;;;5038733;28;19913;-73
2021/05/27 01:53:48;;;;;;;;;;;6.20;97.20;;;;;;5043950;28;20011;-72
2021/05/27 01:56:14;;;;;;;;;;;6.20;97.40;;;;;;5049863;28;20355;-72
2021/05/27 01:58:40;;;;;;;;;;;6.20;97.60;;;;;;5061256;28;20294;-70
2021/05/27 02:01:06;;;;;;;;;;;6.20;97.30;;;;;;5073351;28;20317;-71
2021/05/27 02:03:31;;;;;;;;;;;6.20;97.90;;;;;;5059414;28;20209;-72
2021/05/27 02:05:57;;;;;;;;;;;6.20;98.00;;;;;;5059248;28;20267;-71
2021/05/27 02:08:22;;;;;;;;;;;6.20;98.00;;;;;;5058829;28;19921;-71
2021/05/27 02:10:48;;;;;;;;;;;6.20;97.70;;;;;;5056345;28;20442;-72
2021/05/27 02:13:13;;;;;;;;;;;6.20;97.70;;;;;;5057109;28;19922;-72
2021/05/27 02:15:39;;;;;;;;;;;6.20;97.40;;;;;;5057220;28;19939;-71
2021/05/27 02:18:05;;;;;;;;;;;6.20;97.70;;;;;;5060784;28;20226;-72
2021/05/27 02:20:30;;;;;;;;;;;6.20;97.90;;;;;;5060715;28;19917;-72
2021/05/27 02:22:56;;;;;;;;;;;6.20;97.70;;;;;;5074446;28;19913;-72
2021/05/27 02:25:22;;;;;;;;;;;6.20;98.00;;;;;;5066851;28;20333;-71
2021/05/27 02:27:47;;;;;;;;;;;6.20;97.70;;;;;;5062624;28;19920;-72
2021/05/27 02:30:13;;;;;;;;;;;6.20;97.70;;;;;;5063539;28;19919;-72
2021/05/27 02:32:39;;;;;;;;;;;6.20;97.50;;;;;;5060829;28;19921;-72
2021/05/27 02:35:05;;;;;;;;;;;6.20;97.70;;;;;;5062457;28;19921;-72
2021/05/27 02:37:30;;;;;;;;;;;6.20;97.60;;;;;;5062131;28;19936;-71
2021/05/27 02:39:56;;;;;;;;;;;6.20;97.90;;;;;;5062850;28;19924;-72
2021/05/27 02:42:21;;;;;;;;;;;6.20;97.80;;;;;;5064007;28;20312;-72
2021/05/27 02:44:47;;;;;;;;;;;6.20;97.80;;;;;;5063128;28;19947;-71
2021/05/27 02:47:13;;;;;;;;;;;6.20;97.70;;;;;;5065207;28;19913;-72
2021/05/27 02:49:39;;;;;;;;;;;6.20;97.50;;;;;;5064664;28;19916;-74
2021/05/27 02:52:04;;;;;;;;;;;6.20;97.50;;;;;;5062033;28;19921;-71
2021/05/27 02:54:30;;;;;;;;;;;6.20;97.60;;;;;;5063870;28;20317;-73
2021/05/27 02:56:59;;;;;;;;;;;6.20;97.70;;;;;;5077166;28;20378;-72
2021/05/27 02:59:26;;;;;;;;;;;6.30;97.60;;;;;;5081356;28;20270;-72
2021/05/27 03:01:51;;;;;;;;;;;6.30;97.70;;;;;;5080211;28;19981;-72
2021/05/27 03:04:17;;;;;;;;;;;6.30;97.50;;;;;;5084025;28;19920;-72
2021/05/27 03:06:42;;;;;;;;;;;6.30;97.60;;;;;;5083121;28;20268;-71
2021/05/27 03:09:08;;;;;;;;;;;6.30;97.60;;;;;;5062870;28;19999;-72
2021/05/27 03:11:33;;;;;;;;;;;6.30;97.70;;;;;;5082667;28;19918;-72
2021/05/27 03:13:59;;;;;;;;;;;6.30;97.90;;;;;;5085076;28;19916;-72
2021/05/27 03:16:27;;;;;;;;;;;6.30;97.40;;;;;;5083777;28;20011;-73
2021/05/27 03:18:52;;;;;;;;;;;6.30;97.70;;;;;;5063840;28;20014;-72
2021/05/27 03:21:18;;;;;;;;;;;6.30;97.50;;;;;;5078691;28;20003;-72
2021/05/27 03:23:44;;;;;;;;;;;6.20;97.60;;;;;;5068707;28;19924;-72
2021/05/27 03:26:11;;;;;;;;;;;6.20;97.60;;;;;;5084217;28;19924;-72
2021/05/27 03:28:37;;;;;;;;;;;6.20;97.40;;;;;;5084068;28;19921;-72
2021/05/27 03:31:03;;;;;;;;;;;6.20;97.60;;;;;;5080102;28;19961;-72
2021/05/27 03:33:28;;;;;;;;;;;6.30;97.70;;;;;;5083284;28;19977;-72
2021/05/27 03:35:54;;;;;;;;;;;6.30;97.60;;;;;;5082917;28;19926;-72
2021/05/27 03:38:19;;;;;;;;;;;6.30;97.50;;;;;;5081083;28;19955;-72
2021/05/27 03:40:45;;;;;;;;;;;6.30;97.50;;;;;;5063457;28;19967;-71
2021/05/27 03:43:10;;;;;;;;;;;6.20;97.40;;;;;;5081128;28;19921;-72
2021/05/27 03:45:36;;;;;;;;;;;6.30;97.90;;;;;;5081128;28;19912;-72
2021/05/27 03:48:02;;;;;;;;;;;6.30;97.50;;;;;;5084577;28;20005;-72
2021/05/27 03:50:29;;;;;;;;;;;6.40;97.40;;;;;;5083502;28;19920;-72
2021/05/27 03:52:55;;;;;;;;;;;6.40;97.50;;;;;;5081424;28;19920;-71
2021/05/27 03:55:22;;;;;;;;;;;6.40;97.60;;;;;;5079096;28;20003;-72
2021/05/27 03:57:48;;;;;;;;;;;6.50;97.40;;;;;;5081716;28;19924;-72
2021/05/27 04:03:02;;;;;;;;;;;6.50;97.60;;;;;;5082231;28;19965;-71
2021/05/27 04:08:11;;;;;;;;;;;6.60;97.40;;;;;;5081698;28;19919;-72
2021/05/27 04:10:37;;;;;;;;;;;6.60;97.40;;;;;;5081192;28;19912;-72
2021/05/27 04:13:03;;;;;;;;;;;6.60;97.40;;;;;;5083693;28;19912;-72
2021/05/27 04:15:32;;;;;;;;;;;6.60;97.40;;;;;;5081574;28;19980;-72
2021/05/27 04:18:14;;;;;;;;;;;6.60;97.40;;;;;;5066342;28;20209;-72
2021/05/27 04:20:41;;;;;;;;;;;6.60;97.40;;;;;;5062130;28;20313;-72
2021/05/27 04:23:08;;;;;;;;;;;6.60;97.60;;;;;;5081156;28;19912;-71
2021/05/27 04:25:33;;;;;;;;;;;6.60;97.70;;;;;;5084090;28;19912;-71
2021/05/27 04:28:00;;;;;;;;;;;6.60;98.00;;;;;;5080531;28;20051;-72
2021/05/27 04:30:27;;;;;;;;;;;6.70;97.90;;;;;;5079833;28;20419;-72
2021/05/27 04:32:58;;;;;;;;;;;6.80;97.80;;;;;;5077591;28;19920;-73
2021/05/27 04:35:31;;;;;;;;;;;6.80;97.60;;;;;;5080306;28;19917;-72
2021/05/27 04:37:58;;;;;;;;;;;6.90;97.60;;;;;;5080346;28;19920;-72
2021/05/27 04:40:27;;;;;;;;;;;6.90;97.60;;;;;;5083064;28;19924;-73
2021/05/27 04:42:53;;;;;;;;;;;7.00;97.60;;;;;;5084765;28;19920;-72
2021/05/27 04:45:18;;;;;;;;;;;7.00;97.60;;;;;;5080727;28;20583;-72
2021/05/27 04:47:44;;;;;;;;;;;7.00;97.50;;;;;;5084294;28;19924;-72
2021/05/27 04:50:11;;;;;;;;;;;7.00;97.50;;;;;;5080365;28;19926;-72
2021/05/27 04:52:36;;;;;;;;;;;7.00;97.80;;;;;;5076580;28;19947;-71
2021/05/27 04:55:03;;;;;;;;;;;7.00;97.50;;;;;;5059131;28;19956;-72
2021/05/27 04:57:29;;;;;;;;;;;7.00;97.30;;;;;;5072302;28;19943;-72
2021/05/27 04:59:54;;;;;;;;;;;7.20;97.50;;;;;;5076366;28;19924;-72
2021/05/27 05:02:20;;;;;;;;;;;7.20;97.50;;;;;;5086230;28;19920;-72
2021/05/27 05:04:45;;;;;;;;;;;7.20;97.40;;;;;;5064482;28;19982;-72
2021/05/27 05:07:11;;;;;;;;;;;7.30;97.60;;;;;;5081848;28;19919;-72
2021/05/27 05:09:36;;;;;;;;;;;7.40;97.40;;;;;;5066250;28;19912;-72
2021/05/27 05:12:02;;;;;;;;;;;7.50;97.30;;;;;;5082596;28;19955;-71
2021/05/27 05:14:27;;;;;;;;;;;7.60;97.30;;;;;;5060743;28;19936;-71
2021/05/27 05:16:53;;;;;;;;;;;7.70;97.30;;;;;;5082701;28;19920;-72
2021/05/27 05:19:18;;;;;;;;;;;7.60;97.20;;;;;;5080829;28;19936;-72
2021/05/27 05:21:44;;;;;;;;;;;7.60;97.30;;;;;;5078223;28;19913;-72
2021/05/27 05:24:09;;;;;;;;;;;7.70;97.30;;;;;;5080979;28;20330;-71
2021/05/27 05:26:36;;;;;;;;;;;7.80;97.20;;;;;;5082179;28;20026;-71
2021/05/27 05:29:02;;;;;;;;;;;7.90;97.00;;;;;;5082349;28;20316;-71
2021/05/27 05:31:27;;;;;;;;;;;8.00;97.40;;;;;;5077510;28;19916;-72
2021/05/27 05:33:55;;;;;;;;;;;8.10;97.20;;;;;;5079784;28;19924;-72
2021/05/27 05:36:24;;;;;;;;;;;8.10;96.80;;;;;;5074911;28;20027;-72
2021/05/27 05:38:50;;;;;;;;;;;8.20;96.90;;;;;;5061013;28;19920;-72
2021/05/27 05:41:15;;;;;;;;;;;8.20;96.90;;;;;;5077720;28;19919;-72
2021/05/27 05:43:41;;;;;;;;;;;8.10;96.80;;;;;;5083768;28;19922;-72
2021/05/27 05:46:06;;;;;;;;;;;8.10;97.20;;;;;;5092539;28;20200;-72
2021/05/27 05:48:32;;;;;;;;;;;8.10;96.90;;;;;;5091195;28;19912;-72
2021/05/27 05:50:59;;;;;;;;;;;8.10;97.20;;;;;;5085318;28;19916;-73
2021/05/27 05:53:24;;;;;;;;;;;8.10;97.20;;;;;;5083474;28;19912;-73
2021/05/27 05:55:51;;;;;;;;;;;8.10;97.20;;;;;;5078709;28;20126;-73
2021/05/27 05:58:16;;;;;;;;;;;8.20;96.60;;;;;;5089610;28;19923;-72
2021/05/27 06:00:42;;;;;;;;;;;8.20;96.70;;;;;;5080614;28;20205;-72
2021/05/27 06:03:07;;;;;;;;;;;8.30;97.10;;;;;;5074946;28;19919;-72
2021/05/27 06:05:33;;;;;;;;;;;8.40;97.10;;;;;;5084916;28;19963;-73
2021/05/27 06:07:58;;;;;;;;;;;8.40;96.70;;;;;;5082507;28;19946;-73
2021/05/27 06:10:27;;;;;;;;;;;8.30;96.70;;;;;;5094384;28;19912;-74
2021/05/27 06:12:53;;;;;;;;;;;8.20;96.70;;;;;;5089006;28;20883;-73
2021/05/27 06:15:22;;;;;;;;;;;8.20;96.90;;;;;;5092741;28;19964;-73
2021/05/27 06:17:48;;;;;;;;;;;8.40;97.00;;;;;;5088280;28;19912;-73
2021/05/27 06:20:14;;;;;;;;;;;8.50;97.00;;;;;;5089311;28;19916;-73
2021/05/27 06:22:40;;;;;;;;;;;8.60;96.70;;;;;;5090578;28;19912;-73
2021/05/27 06:25:06;;;;;;;;;;;8.70;97.00;;;;;;5095171;28;19935;-73
2021/05/27 06:27:32;;;;;;;;;;;9.10;96.30;;;;;;5082138;28;19912;-73
2021/05/27 06:29:57;;;;;;;;;;;9.30;96.10;;;;;;5092455;28;19994;-71
2021/05/27 06:32:22;;;;;;;;;;;9.40;95.70;;;;;;5079160;28;20520;-72
2021/05/27 06:34:52;;;;;;;;;;;9.40;96.30;;;;;;5088159;28;20014;-72
2021/05/27 06:37:18;;;;;;;;;;;9.40;95.70;;;;;;5091631;28;19916;-72
2021/05/27 06:39:44;;;;;;;;;;;9.30;95.30;;;;;;5094120;28;19927;-73
2021/05/27 06:42:09;;;;;;;;;;;9.00;95.30;;;;;;5079760;28;19920;-74
2021/05/27 06:44:35;;;;;;;;;;;9.00;96.50;;;;;;5095057;28;20305;-72
2021/05/27 06:47:01;;;;;;;;;;;8.70;96.10;;;;;;5082782;28;20320;-72
2021/05/27 06:49:26;;;;;;;;;;;8.70;96.00;;;;;;5091343;28;19912;-72
2021/05/27 06:51:55;;;;;;;;;;;8.80;96.60;;;;;;5081748;28;20709;-71
2021/05/27 06:54:21;;;;;;;;;;;9.10;96.40;;;;;;5078568;28;19912;-73
2021/05/27 06:56:47;;;;;;;;;;;9.00;96.00;;;;;;5076335;28;19927;-74
2021/05/27 06:59:12;;;;;;;;;;;8.90;96.60;;;;;;5081941;28;19923;-72
2021/05/27 07:01:38;;;;;;;;;;;9.00;96.20;;;;;;5085589;28;19913;-72
2021/05/27 07:04:03;;;;;;;;;;;9.20;95.90;;;;;;5094386;28;19913;-72
2021/05/27 07:06:31;;;;;;;;;;;9.40;95.40;;;;;;5096545;28;20010;-73
2021/05/27 07:08:57;;;;;;;;;;;9.20;95.40;;;;;;5097995;28;19916;-71
2021/05/27 07:11:22;;;;;;;;;;;9.30;95.40;;;;;;5099223;28;20053;-72
2021/05/27 07:13:48;;;;;;;;;;;9.60;95.90;;;;;;5098372;28;19943;-73
2021/05/27 07:16:14;;;;;;;;;;;9.60;95.40;;;;;;5098883;28;19908;-72
2021/05/27 07:18:40;;;;;;;;;;;9.80;94.60;;;;;;5094146;28;19969;-73
2021/05/27 07:21:05;;;;;;;;;;;9.70;95.20;;;;;;5088220;28;20797;-72
2021/05/27 07:23:31;;;;;;;;;;;10.10;95.10;;;;;;5097327;28;19916;-72
2021/05/27 07:25:59;;;;;;;;;;;10.30;94.00;;;;;;5098862;28;19908;-73
2021/05/27 07:28:25;;;;;;;;;;;10.90;92.70;;;;;;5088578;28;20205;-72
2021/05/27 07:30:51;;;;;;;;;;;11.00;91.80;;;;;;5084721;28;19912;-73
2021/05/27 07:33:18;;;;;;;;;;;10.80;92.20;;;;;;5096749;28;20217;-72
2021/05/27 07:35:44;;;;;;;;;;;11.10;91.60;;;;;;5077230;28;19912;-72
2021/05/27 07:38:11;;;;;;;;;;;10.70;92.00;;;;;;5078650;28;19962;-73
2021/05/27 07:40:36;;;;;;;;;;;11.10;90.90;;;;;;5098437;28;20297;-72
2021/05/27 07:43:02;;;;;;;;;;;12.30;86.80;;;;;;5094004;28;19912;-73
2021/05/27 07:45:28;;;;;;;;;;;12.80;84.30;;;;;;5094193;28;20046;-72
2021/05/27 07:47:53;;;;;;;;;;;12.90;84.50;;;;;;5083071;28;20305;-73
2021/05/27 07:50:20;;;;;;;;;;;13.40;84.30;;;;;;5078157;28;20348;-72
2021/05/27 07:52:47;;;;;;;;;;;12.60;85.30;;;;;;5077162;28;20228;-71
2021/05/27 07:55:12;;;;;;;;;;;12.70;86.30;;;;;;5085868;28;20061;-73
2021/05/27 07:57:38;;;;;;;;;;;12.80;85.20;;;;;;5060194;28;19978;-71
2021/05/27 08:00:07;;;;;;;;;;;11.90;86.10;;;;;;5081945;28;19924;-72
2021/05/27 08:02:33;;;;;;;;;;;12.30;85.70;;;;;;5094364;28;19919;-72
2021/05/27 08:04:58;;;;;;;;;;;11.90;86.20;;;;;;5085228;28;20255;-72
2021/05/27 08:07:24;;;;;;;;;;;12.00;87.50;;;;;;5077160;28;19939;-73
2021/05/27 08:09:49;;;;;;;;;;;13.20;84.60;;;;;;5093968;28;19912;-72
2021/05/27 08:12:15;;;;;;;;;;;13.30;82.30;;;;;;5085680;28;20244;-72
2021/05/27 08:14:45;;;;;;;;;;;13.00;81.70;;;;;;5084356;28;19928;-73
2021/05/27 08:17:11;;;;;;;;;;;12.50;83.00;;;;;;5076708;28;19970;-73
2021/05/27 08:19:39;;;;;;;;;;;13.60;83.90;;;;;;5068397;28;19920;-72
2021/05/27 08:22:05;;;;;;;;;;;14.40;78.40;;;;;;5080119;28;19916;-72
2021/05/27 08:24:31;;;;;;;;;;;14.70;78.70;;;;;;5088761;28;19912;-73
2021/05/27 08:26:57;;;;;;;;;;;14.30;79.00;;;;;;5096657;28;20301;-72
2021/05/27 08:29:23;;;;;;;;;;;13.70;80.40;;;;;;5085788;28;19917;-72
2021/05/27 08:31:48;;;;;;;;;;;13.30;81.10;;;;;;5097477;28;19912;-72
2021/05/27 08:34:14;;;;;;;;;;;12.90;83.60;;;;;;5095574;28;19934;-73
2021/05/27 08:36:39;;;;;;;;;;;12.60;84.20;;;;;;5095282;28;19912;-72
2021/05/27 08:39:06;;;;;;;;;;;12.10;85.70;;;;;;5084169;28;19916;-72
2021/05/27 08:41:31;;;;;;;;;;;13.10;82.30;;;;;;5079313;28;19912;-72
2021/05/27 08:43:57;;;;;;;;;;;14.20;78.80;;;;;;5088550;28;20046;-72
2021/05/27 08:46:29;;;;;;;;;;;15.50;76.10;;;;;;5062243;28;19947;-72
2021/05/27 08:48:54;;;;;;;;;;;15.40;74.50;;;;;;5084617;28;19912;-71
2021/05/27 08:51:20;;;;;;;;;;;15.60;73.50;;;;;;5083658;28;19935;-71
2021/05/27 08:53:45;;;;;;;;;;;15.20;71.50;;;;;;5080017;28;19999;-71
2021/05/27 08:56:12;;;;;;;;;;;14.20;74.70;;;;;;5086442;28;19927;-71
2021/05/27 08:58:38;;;;;;;;;;;13.60;76.60;;;;;;5096348;28;19985;-70
2021/05/27 09:01:03;;;;;;;;;;;14.00;75.70;;;;;;5094808;28;19916;-70
2021/05/27 09:03:42;;;;;;;;;;;14.10;74.20;;;;;;5078516;28;20312;-72
2021/05/27 09:06:09;;;;;;;;;;;14.60;73.70;;;;;;5075571;28;19915;-72
2021/05/27 09:08:37;;;;;;;;;;;15.30;73.50;;;;;;5092905;28;19919;-72
2021/05/27 09:11:04;;;;;;;;;;;13.80;75.00;;;;;;5096750;28;19934;-72
2021/05/27 09:13:30;;;;;;;;;;;13.10;78.50;;;;;;5082476;28;20221;-72
2021/05/27 09:16:04;;;;;;;;;;;12.90;78.40;;;;;;5077945;28;19908;-70
2021/05/27 09:18:31;;;;;;;;;;;12.80;77.20;;;;;;5079499;28;19958;-72
2021/05/27 09:20:56;;;;;;;;;;;13.90;77.20;;;;;;5090666;28;19920;-72
2021/05/27 09:23:22;;;;;;;;;;;15.20;73.10;;;;;;5081886;28;19908;-71
2021/05/27 09:25:53;;;;;;;;;;;16.40;70.70;;;;;;5076344;28;19954;-71
2021/05/27 09:28:20;;;;;;;;;;;17.40;68.50;;;;;;5087281;28;20358;-71
2021/05/27 09:30:47;;;;;;;;;;;16.70;69.00;;;;;;5079005;28;19920;-71
2021/05/27 09:33:13;;;;;;;;;;;15.90;72.00;;;;;;5077145;28;19912;-71
2021/05/27 09:35:39;;;;;;;;;;;16.70;71.10;;;;;;5074900;28;19920;-72
2021/05/27 09:38:05;;;;;;;;;;;17.40;65.90;;;;;;5076125;28;20289;-71
2021/05/27 09:40:33;;;;;;;;;;;16.70;67.40;;;;;;5076023;28;19995;-71
2021/05/27 09:42:59;;;;;;;;;;;17.40;66.10;;;;;;5076121;28;19985;-71
2021/05/27 09:45:26;;;;;;;;;;;17.60;64.90;;;;;;5092724;28;19919;-71
2021/05/27 09:47:52;;;;;;;;;;;15.30;69.10;;;;;;5096019;28;20216;-71
2021/05/27 09:50:17;;;;;;;;;;;14.00;73.40;;;;;;5095354;28;19912;-71
2021/05/27 09:52:46;;;;;;;;;;;13.90;75.80;;;;;;5094833;28;20068;-71
2021/05/27 09:55:16;;;;;;;;;;;14.90;72.30;;;;;;5096081;28;19935;-71
2021/05/27 09:57:42;;;;;;;;;;;15.60;71.60;;;;;;5078407;28;20271;-71
2021/05/27 10:00:23;;;;;;;;;;;16.30;68.80;;;;;;5095613;28;19916;-71
2021/05/27 10:02:49;;;;;;;;;;;17.30;66.00;;;;;;5095878;28;19912;-71
2021/05/27 10:05:14;;;;;;;;;;;17.10;63.10;;;;;;5096136;28;20212;-71
2021/05/27 10:07:40;;;;;;;;;;;16.00;65.90;;;;;;5094822;28;19915;-71
2021/05/27 10:10:09;;;;;;;;;;;16.00;66.00;;;;;;5096079;28;19908;-71
2021/05/27 10:12:36;;;;;;;;;;;17.00;64.90;;;;;;5095935;28;19915;-71
2021/05/27 10:15:02;;;;;;;;;;;17.70;64.40;;;;;;5079104;28;19913;-71
2021/05/27 10:17:30;;;;;;;;;;;17.60;64.20;;;;;;5079247;28;19934;-71
2021/05/27 10:19:56;;;;;;;;;;;16.40;65.40;;;;;;5073627;28;19999;-71
2021/05/27 10:22:22;;;;;;;;;;;15.40;67.30;;;;;;5090364;28;20257;-71
2021/05/27 10:24:47;;;;;;;;;;;15.40;68.80;;;;;;5086106;28;19958;-70
2021/05/27 10:27:13;;;;;;;;;;;16.50;67.40;;;;;;5085380;28;19909;-70
2021/05/27 10:29:38;;;;;;;;;;;17.90;63.70;;;;;;5095886;28;19923;-71
2021/05/27 10:32:05;;;;;;;;;;;17.90;63.00;;;;;;5092660;28;20233;-71
2021/05/27 10:34:45;;;;;;;;;;;16.80;65.30;;;;;;5093253;28;19912;-71
2021/05/27 10:37:10;;;;;;;;;;;15.50;66.30;;;;;;5090890;28;19915;-71
2021/05/27 10:39:37;;;;;;;;;;;14.80;68.60;;;;;;5094197;28;20223;-71
2021/05/27 10:42:03;;;;;;;;;;;15.20;69.00;;;;;;5099631;28;19912;-71
2021/05/27 10:44:28;;;;;;;;;;;17.00;64.00;;;;;;5085764;28;19912;-71
2021/05/27 10:46:54;;;;;;;;;;;18.00;62.50;;;;;;5078957;28;19931;-70
2021/05/27 10:49:38;;;;;;;;;;;18.70;60.70;;;;;;5079269;28;19954;-71
2021/05/27 10:52:23;;;;;;;;;;;18.60;63.40;;;;;;5077982;28;20216;-71
2021/05/27 10:54:49;;;;;;;;;;;18.90;62.70;;;;;;5094775;28;19920;-71
2021/05/27 10:57:33;;;;;;;;;;;19.20;61.80;;;;;;5094427;28;19939;-71
2021/05/27 10:59:59;;;;;;;;;;;18.70;62.20;;;;;;5096201;28;19924;-70
2021/05/27 11:02:26;;;;;;;;;;;18.00;62.20;;;;;;5097300;28;19919;-70
2021/05/27 11:05:11;;;;;;;;;;;18.50;63.20;;;;;;5096858;28;20289;-70
2021/05/27 11:07:37;;;;;;;;;;;18.70;61.40;;;;;;5082113;28;19916;-70
2021/05/27 11:10:02;;;;;;;;;;;17.80;62.80;;;;;;5083323;28;19919;-69
2021/05/27 11:12:30;;;;;;;;;;;17.00;64.10;;;;;;5095411;28;20002;-69
2021/05/27 11:15:10;;;;;;;;;;;16.80;64.60;;;;;;5067316;28;19912;-70
2021/05/27 11:17:36;;;;;;;;;;;16.80;64.00;;;;;;5083741;28;20361;-70
2021/05/27 11:20:06;;;;;;;;;;;16.40;66.10;;;;;;5080558;28;20008;-70
2021/05/27 11:27:38;;;;;;;;;;;16.70;66.30;;;;;;5093206;28;20269;-70
2021/05/27 11:30:23;;;;;;;;;;;17.20;66.00;;;;;;5061080;28;19980;-71
2021/05/27 11:32:49;;;;;;;;;;;17.70;63.40;;;;;;5089452;28;19962;-69
2021/05/27 11:35:16;;;;;;;;;;;17.10;64.10;;;;;;5091636;28;19913;-69
2021/05/27 11:37:43;;;;;;;;;;;16.40;65.50;;;;;;5084941;28;20334;-70
2021/05/27 11:40:10;;;;;;;;;;;15.90;65.80;;;;;;5089013;28;19970;-70
2021/05/27 11:42:36;;;;;;;;;;;15.40;67.60;;;;;;5067405;28;19935;-70
2021/05/27 11:45:03;;;;;;;;;;;16.10;67.80;;;;;;5085874;28;20312;-70
2021/05/27 11:47:29;;;;;;;;;;;15.90;67.70;;;;;;5068215;28;19954;-70
2021/05/27 11:50:11;;;;;;;;;;;15.40;67.50;;;;;;5097648;28;19916;-70
2021/05/27 11:52:37;;;;;;;;;;;14.80;69.30;;;;;;5068165;28;20309;-70
2021/05/27 11:55:04;;;;;;;;;;;14.80;71.00;;;;;;5092365;28;19919;-70
2021/05/27 11:57:47;;;;;;;;;;;14.50;69.60;;;;;;5070116;28;19924;-69
2021/05/27 12:00:13;;;;;;;;;;;14.20;71.30;;;;;;5090413;28;19916;-70
2021/05/27 12:02:42;;;;;;;;;;;14.20;72.40;;;;;;5081543;28;19916;-70
2021/05/27 12:05:21;;;;;;;;;;;14.40;72.00;;;;;;5097870;28;19915;-70
2021/05/27 12:08:05;;;;;;;;;;;14.40;71.50;;;;;;5094274;28;19912;-70
2021/05/27 12:10:35;;;;;;;;;;;14.10;71.10;;;;;;5075186;28;19920;-70
2021/05/27 12:13:00;;;;;;;;;;;14.00;72.60;;;;;;5087950;28;20003;-69
2021/05/27 12:15:27;;;;;;;;;;;14.20;73.10;;;;;;5094031;28;19995;-69
2021/05/27 12:17:55;;;;;;;;;;;14.10;72.60;;;;;;5093741;28;20330;-69
2021/05/27 12:20:27;;;;;;;;;;;14.10;73.80;;;;;;5063459;28;19916;-69
2021/05/27 12:22:52;;;;;;;;;;;14.30;72.30;;;;;;5090161;28;19998;-69
2021/05/27 12:25:19;;;;;;;;;;;14.50;72.60;;;;;;5082251;28;19947;-70
2021/05/27 12:27:46;;;;;;;;;;;14.70;71.80;;;;;;5080777;28;19920;-70
2021/05/27 12:30:16;;;;;;;;;;;14.50;73.70;;;;;;5078560;28;19920;-70
2021/05/27 12:32:45;;;;;;;;;;;14.50;74.00;;;;;;5096964;28;19919;-69
2021/05/27 12:35:15;;;;;;;;;;;14.80;73.90;;;;;;5080571;28;19920;-69
2021/05/27 12:37:46;;;;;;;;;;;15.10;72.80;;;;;;5084298;28;19912;-71
2021/05/27 12:40:13;;;;;;;;;;;15.10;72.70;;;;;;5096987;28;20286;-70
2021/05/27 12:42:39;;;;;;;;;;;15.60;70.20;;;;;;5087912;28;19939;-70
2021/05/27 12:45:23;;;;;;;;;;;15.90;69.10;;;;;;5088200;28;19916;-70
2021/05/27 12:48:07;;;;;;;;;;;16.10;69.60;;;;;;5076727;28;19920;-70
2021/05/27 12:50:33;;;;;;;;;;;16.50;68.40;;;;;;5088429;28;19957;-70
2021/05/27 12:53:06;;;;;;;;;;;16.90;67.30;;;;;;5076911;28;19923;-70
2021/05/27 12:55:34;;;;;;;;;;;17.00;64.80;;;;;;5096892;28;19920;-69
2021/05/27 12:58:00;;;;;;;;;;;16.60;65.10;;;;;;5097042;28;20038;-70
2021/05/27 13:00:26;;;;;;;;;;;16.90;65.10;;;;;;5088600;28;19969;-70
2021/05/27 13:03:06;;;;;;;;;;;17.70;63.20;;;;;;5089924;28;20246;-69
2021/05/27 13:05:31;;;;;;;;;;;17.40;64.60;;;;;;5085535;28;20011;-70
2021/05/27 13:07:58;;;;;;;;;;;16.70;64.80;;;;;;5094966;28;20016;-70
2021/05/27 13:10:41;;;;;;;;;;;16.40;66.00;;;;;;5079530;28;19909;-70
2021/05/27 13:13:07;;;;;;;;;;;16.10;66.70;;;;;;5064864;28;19952;-70
2021/05/27 13:15:40;;;;;;;;;;;15.80;68.50;;;;;;5095272;28;19916;-69
2021/05/27 13:18:11;;;;;;;;;;;15.40;70.40;;;;;;5075647;28;19916;-70
2021/05/27 13:20:55;;;;;;;;;;;15.50;70.20;;;;;;5090391;28;19917;-70
2021/05/27 13:23:39;;;;;;;;;;;15.90;69.60;;;;;;5095482;28;19965;-71
2021/05/27 13:26:09;;;;;;;;;;;15.70;69.40;;;;;;5060459;28;20305;-69
2021/05/27 13:28:34;;;;;;;;;;;15.50;68.90;;;;;;5085260;28;19912;-69
2021/05/27 13:31:00;;;;;;;;;;;15.30;68.60;;;;;;5088217;28;19936;-70
2021/05/27 13:33:26;;;;;;;;;;;15.40;69.00;;;;;;5085183;28;19957;-69
2021/05/27 13:35:57;;;;;;;;;;;15.70;68.40;;;;;;5089764;28;20160;-70
2021/05/27 13:38:25;;;;;;;;;;;15.50;67.60;;;;;;5088853;28;19912;-71
2021/05/27 13:40:51;;;;;;;;;;;15.40;68.20;;;;;;5089572;28;20007;-70
2021/05/27 13:43:16;;;;;;;;;;;15.30;68.30;;;;;;5078740;28;20016;-70
2021/05/27 13:45:42;;;;;;;;;;;15.40;68.90;;;;;;5078407;28;19912;-71
2021/05/27 13:48:08;;;;;;;;;;;15.40;69.00;;;;;;5095086;28;20360;-70
2021/05/27 13:50:34;;;;;;;;;;;15.20;68.60;;;;;;5088517;28;19923;-71
2021/05/27 13:53:03;;;;;;;;;;;15.00;69.20;;;;;;5090669;28;19908;-70
2021/05/27 13:55:32;;;;;;;;;;;15.00;70.70;;;;;;5094790;28;19971;-71
2021/05/27 13:57:58;;;;;;;;;;;14.90;71.20;;;;;;5087193;28;20394;-71
2021/05/27 14:00:23;;;;;;;;;;;14.80;71.00;;;;;;5091325;28;19943;-71
2021/05/27 14:02:49;;;;;;;;;;;14.80;71.30;;;;;;5096009;28;20312;-71
2021/05/27 14:05:15;;;;;;;;;;;14.80;72.70;;;;;;5094062;28;19908;-70
2021/05/27 14:07:40;;;;;;;;;;;14.50;72.80;;;;;;5088506;28;19912;-71
2021/05/27 14:10:06;;;;;;;;;;;14.00;72.30;;;;;;5093431;28;19952;-70
2021/05/27 14:12:32;;;;;;;;;;;13.80;74.10;;;;;;5091939;28;19920;-70
2021/05/27 14:14:58;;;;;;;;;;;13.70;75.30;;;;;;5093887;28;19960;-71
2021/05/27 14:17:23;;;;;;;;;;;13.80;75.00;;;;;;5098277;28;19920;-70
2021/05/27 14:19:49;;;;;;;;;;;13.80;75.00;;;;;;5095442;28;19943;-70
2021/05/27 14:22:17;;;;;;;;;;;13.70;74.50;;;;;;5090836;28;19934;-70
2021/05/27 14:24:43;;;;;;;;;;;14.00;74.30;;;;;;5092607;28;19920;-71
2021/05/27 14:27:08;;;;;;;;;;;14.40;73.90;;;;;;5097828;28;19912;-70
2021/05/27 14:29:34;;;;;;;;;;;15.30;71.80;;;;;;5096367;28;19916;-71
2021/05/27 14:32:00;;;;;;;;;;;15.40;72.30;;;;;;5096807;28;19920;-71
2021/05/27 14:34:26;;;;;;;;;;;15.70;70.70;;;;;;5096897;28;19916;-71
2021/05/27 14:36:51;;;;;;;;;;;15.80;69.20;;;;;;5094176;28;19912;-71